sensor_id;sensor_type;location;lat;lon;timestamp;temperature;humidity
54516;DHT22;40422;45.892;4.738;2023-05-10T03:00:31;12.70;99.90
54516;DHT22;40422;45.892;4.738;2023-05-10T03:02:57;12.60;99.90
54516;DHT22;40422;45.892;4.738;2023-05-10T03:05:23;12.50;99.90
54516;DHT22;40422;45.892;4.738;2023-05-10T03:07:49;12.50;99.90
54516;DHT22;40422;45.892;4.738;2023-05-10T03:10:17;12.50;99.90
54516;DHT22;40422;45.892;4.738;2023-05-10T03:15:47;12.40;99.90
54516;DHT22;40422;45.892;4.738;2023-05-10T03:18:17;12.40;99.90
54516;DHT22;40422;45.892;4.738;2023-05-10T03:20:48;12.30;99.90
54516;DHT22;40422;45.892;4.738;2023-05-10T03:25:44;12.30;99.90
54516;DHT22;40422;45.892;4.738;2023-05-10T03:28:13;12.20;99.90
54516;DHT22;40422;45.892;4.738;2023-05-10T03:30:41;12.20;99.90
54516;DHT22;40422;45.892;4.738;2023-05-10T03:33:07;12.10;99.90
54516;DHT22;40422;45.892;4.738;2023-05-10T03:35:32;12.10;99.90
54516;DHT22;40422;45.892;4.738;2023-05-10T03:37:58;12.10;99.90
54516;DHT22;40422;45.892;4.738;2023-05-10T03:40:25;12.00;99.90
54516;DHT22;40422;45.892;4.738;2023-05-10T03:42:51;11.90;99.90
54516;DHT22;40422;45.892;4.738;2023-05-10T03:45:17;11.90;99.90
54516;DHT22;40422;45.892;4.738;2023-05-10T03:47:42;11.90;99.90
54516;DHT22;40422;45.892;4.738;2023-05-10T03:50:08;11.90;99.90
54516;DHT22;40422;45.892;4.738;2023-05-10T03:52:34;11.90;99.90
54516;DHT22;40422;45.892;4.738;2023-05-10T03:54:59;11.90;99.90
54516;DHT22;40422;45.892;4.738;2023-05-10T03:57:25;11.90;99.90
54516;DHT22;40422;45.892;4.738;2023-05-10T03:59:50;12.00;99.90
54516;DHT22;40422;45.892;4.738;2023-05-10T04:02:16;11.90;99.90
54516;DHT22;40422;45.892;4.738;2023-05-10T04:04:42;11.90;99.90
54516;DHT22;40422;45.892;4.738;2023-05-10T04:07:07;11.90;99.90
54516;DHT22;40422;45.892;4.738;2023-05-10T04:09:34;11.80;99.90
54516;DHT22;40422;45.892;4.738;2023-05-10T04:12:00;11.80;99.90
54516;DHT22;40422;45.892;4.738;2023-05-10T04:14:27;11.70;99.90
54516;DHT22;40422;45.892;4.738;2023-05-10T04:16:53;11.70;99.90
54516;DHT22;40422;45.892;4.738;2023-05-10T04:19:18;11.60;99.90
54516;DHT22;40422;45.892;4.738;2023-05-10T04:21:44;11.70;99.90
54516;DHT22;40422;45.892;4.738;2023-05-10T04:24:10;11.60;99.90
54516;DHT22;40422;45.892;4.738;2023-05-10T04:26:35;11.50;99.90
54516;DHT22;40422;45.892;4.738;2023-05-10T04:29:01;11.40;99.90
54516;DHT22;40422;45.892;4.738;2023-05-10T04:31:26;11.40;99.90
54516;DHT22;40422;45.892;4.738;2023-05-10T04:33:53;11.30;99.90
54516;DHT22;40422;45.892;4.738;2023-05-10T04:36:18;11.20;99.90
54516;DHT22;40422;45.892;4.738;2023-05-10T04:38:44;11.20;99.90
54516;DHT22;40422;45.892;4.738;2023-05-10T04:41:10;11.20;99.90
54516;DHT22;40422;45.892;4.738;2023-05-10T04:43:37;11.20;99.90
54516;DHT22;40422;45.892;4.738;2023-05-10T04:46:03;11.20;99.90
54516;DHT22;40422;45.892;4.738;2023-05-10T04:48:29;11.20;99.90
54516;DHT22;40422;45.892;4.738;2023-05-10T04:50:54;11.20;99.90
54516;DHT22;40422;45.892;4.738;2023-05-10T04:53:20;11.30;99.90
54516;DHT22;40422;45.892;4.738;2023-05-10T04:55:46;11.30;99.90
54516;DHT22;40422;45.892;4.738;2023-05-10T04:58:12;11.30;99.90
54516;DHT22;40422;45.892;4.738;2023-05-10T05:00:38;11.30;99.90
54516;DHT22;40422;45.892;4.738;2023-05-10T05:03:04;11.30;99.90
54516;DHT22;40422;45.892;4.738;2023-05-10T05:05:29;11.40;99.90
54516;DHT22;40422;45.892;4.738;2023-05-10T05:07:55;11.40;99.90
54516;DHT22;40422;45.892;4.738;2023-05-10T05:10:20;11.40;99.90
54516;DHT22;40422;45.892;4.738;2023-05-10T05:12:46;11.50;99.90
54516;DHT22;40422;45.892;4.738;2023-05-10T05:15:11;11.40;99.90
54516;DHT22;40422;45.892;4.738;2023-05-10T05:17:37;11.50;99.90
54516;DHT22;40422;45.892;4.738;2023-05-10T05:20:03;11.50;99.90
54516;DHT22;40422;45.892;4.738;2023-05-10T05:22:29;11.50;99.90
54516;DHT22;40422;45.892;4.738;2023-05-10T05:24:55;11.50;99.90
54516;DHT22;40422;45.892;4.738;2023-05-10T05:27:22;11.50;99.90
54516;DHT22;40422;45.892;4.738;2023-05-10T05:29:55;11.50;99.90
54516;DHT22;40422;45.892;4.738;2023-05-10T05:32:20;11.60;99.90
54516;DHT22;40422;45.892;4.738;2023-05-10T05:34:47;11.80;99.90
54516;DHT22;40422;45.892;4.738;2023-05-10T05:37:14;11.90;99.90
54516;DHT22;40422;45.892;4.738;2023-05-10T05:39:39;12.00;99.90
54516;DHT22;40422;45.892;4.738;2023-05-10T05:42:05;12.10;99.90
54516;DHT22;40422;45.892;4.738;2023-05-10T05:44:31;12.20;99.90
54516;DHT22;40422;45.892;4.738;2023-05-10T05:46:56;12.30;99.90
54516;DHT22;40422;45.892;4.738;2023-05-10T05:49:22;12.40;99.90
54516;DHT22;40422;45.892;4.738;2023-05-10T05:51:47;12.50;99.90
54516;DHT22;40422;45.892;4.738;2023-05-10T05:54:15;12.50;99.90
54516;DHT22;40422;45.892;4.738;2023-05-10T05:56:41;12.60;99.90
54516;DHT22;40422;45.892;4.738;2023-05-10T05:59:07;12.60;99.90
54516;DHT22;40422;45.892;4.738;2023-05-10T06:01:33;12.80;99.90
54516;DHT22;40422;45.892;4.738;2023-05-10T06:03:58;12.80;99.90
54516;DHT22;40422;45.892;4.738;2023-05-10T06:06:24;13.00;99.90
54516;DHT22;40422;45.892;4.738;2023-05-10T06:08:50;13.10;99.90
54516;DHT22;40422;45.892;4.738;2023-05-10T06:11:15;13.20;99.90
54516;DHT22;40422;45.892;4.738;2023-05-10T06:13:41;13.40;99.90
54516;DHT22;40422;45.892;4.738;2023-05-10T06:16:07;13.30;99.90
54516;DHT22;40422;45.892;4.738;2023-05-10T06:18:33;13.40;99.90
54516;DHT22;40422;45.892;4.738;2023-05-10T06:20:59;13.40;99.90
54516;DHT22;40422;45.892;4.738;2023-05-10T06:23:25;13.40;99.90
54516;DHT22;40422;45.892;4.738;2023-05-10T06:25:51;13.30;99.90
54516;DHT22;40422;45.892;4.738;2023-05-10T06:28:16;13.30;99.90
54516;DHT22;40422;45.892;4.738;2023-05-10T06:30:42;13.30;99.90
54516;DHT22;40422;45.892;4.738;2023-05-10T06:33:08;13.30;99.90
54516;DHT22;40422;45.892;4.738;2023-05-10T06:35:34;13.30;99.90
54516;DHT22;40422;45.892;4.738;2023-05-10T06:37:59;13.40;99.90
54516;DHT22;40422;45.892;4.738;2023-05-10T06:40:25;13.40;99.90
54516;DHT22;40422;45.892;4.738;2023-05-10T06:42:51;13.50;99.90
54516;DHT22;40422;45.892;4.738;2023-05-10T06:45:17;13.50;99.90
54516;DHT22;40422;45.892;4.738;2023-05-10T06:47:42;13.50;99.90
54516;DHT22;40422;45.892;4.738;2023-05-10T06:50:09;13.50;99.90
54516;DHT22;40422;45.892;4.738;2023-05-10T06:52:35;13.60;99.90
54516;DHT22;40422;45.892;4.738;2023-05-10T06:55:01;13.60;99.90
54516;DHT22;40422;45.892;4.738;2023-05-10T06:57:27;13.70;99.90
54516;DHT22;40422;45.892;4.738;2023-05-10T06:59:52;13.80;99.90
54516;DHT22;40422;45.892;4.738;2023-05-10T07:02:18;13.80;99.90
54516;DHT22;40422;45.892;4.738;2023-05-10T07:04:44;13.90;99.90
54516;DHT22;40422;45.892;4.738;2023-05-10T07:07:12;13.90;99.90
54516;DHT22;40422;45.892;4.738;2023-05-10T07:09:38;14.00;99.90
54516;DHT22;40422;45.892;4.738;2023-05-10T07:12:04;14.10;99.90
54516;DHT22;40422;45.892;4.738;2023-05-10T07:14:30;14.10;99.90
54516;DHT22;40422;45.892;4.738;2023-05-10T07:16:55;14.20;99.90
54516;DHT22;40422;45.892;4.738;2023-05-10T07:19:21;14.30;99.90
54516;DHT22;40422;45.892;4.738;2023-05-10T07:21:47;14.40;99.90
54516;DHT22;40422;45.892;4.738;2023-05-10T07:24:12;14.40;99.90
54516;DHT22;40422;45.892;4.738;2023-05-10T07:26:38;14.40;99.90
54516;DHT22;40422;45.892;4.738;2023-05-10T07:29:03;14.30;99.90
54516;DHT22;40422;45.892;4.738;2023-05-10T07:31:29;14.30;99.90
54516;DHT22;40422;45.892;4.738;2023-05-10T07:33:55;14.30;99.90
54516;DHT22;40422;45.892;4.738;2023-05-10T07:36:20;14.20;99.90
54516;DHT22;40422;45.892;4.738;2023-05-10T07:38:46;14.10;99.90
54516;DHT22;40422;45.892;4.738;2023-05-10T07:41:12;14.00;99.90
54516;DHT22;40422;45.892;4.738;2023-05-10T07:43:38;13.90;99.90
54516;DHT22;40422;45.892;4.738;2023-05-10T07:46:04;13.90;99.90
54516;DHT22;40422;45.892;4.738;2023-05-10T07:48:30;13.80;99.90
54516;DHT22;40422;45.892;4.738;2023-05-10T07:50:56;13.70;99.90
54516;DHT22;40422;45.892;4.738;2023-05-10T07:53:22;13.60;99.90
54516;DHT22;40422;45.892;4.738;2023-05-10T07:55:54;13.40;99.90
54516;DHT22;40422;45.892;4.738;2023-05-10T07:58:22;13.40;99.90
54516;DHT22;40422;45.892;4.738;2023-05-10T08:00:47;13.40;99.90
54516;DHT22;40422;45.892;4.738;2023-05-10T08:03:14;13.50;99.90
54516;DHT22;40422;45.892;4.738;2023-05-10T08:05:40;13.50;99.90
54516;DHT22;40422;45.892;4.738;2023-05-10T08:08:06;13.50;99.90
54516;DHT22;40422;45.892;4.738;2023-05-10T08:10:33;13.60;99.90
54516;DHT22;40422;45.892;4.738;2023-05-10T08:12:59;13.70;99.90
54516;DHT22;40422;45.892;4.738;2023-05-10T08:15:25;13.80;99.90
54516;DHT22;40422;45.892;4.738;2023-05-10T08:17:51;13.90;99.90
54516;DHT22;40422;45.892;4.738;2023-05-10T08:20:17;14.10;99.90
54516;DHT22;40422;45.892;4.738;2023-05-10T08:22:45;14.30;99.90
54516;DHT22;40422;45.892;4.738;2023-05-10T08:25:10;14.40;99.90
54516;DHT22;40422;45.892;4.738;2023-05-10T08:27:36;14.50;99.90
54516;DHT22;40422;45.892;4.738;2023-05-10T08:30:02;14.70;99.90
54516;DHT22;40422;45.892;4.738;2023-05-10T08:32:28;14.80;99.90
54516;DHT22;40422;45.892;4.738;2023-05-10T08:34:53;14.90;99.90
54516;DHT22;40422;45.892;4.738;2023-05-10T08:37:19;15.10;99.90
54516;DHT22;40422;45.892;4.738;2023-05-10T08:39:45;15.10;99.90
54516;DHT22;40422;45.892;4.738;2023-05-10T08:42:16;15.10;99.90
54516;DHT22;40422;45.892;4.738;2023-05-10T08:44:45;15.20;99.90
54516;DHT22;40422;45.892;4.738;2023-05-10T08:47:15;15.10;99.90
54516;DHT22;40422;45.892;4.738;2023-05-10T08:49:41;15.10;99.90
54516;DHT22;40422;45.892;4.738;2023-05-10T08:52:08;15.00;99.90
54516;DHT22;40422;45.892;4.738;2023-05-10T08:54:36;15.00;99.90
54516;DHT22;40422;45.892;4.738;2023-05-10T08:57:02;15.00;99.90
54516;DHT22;40422;45.892;4.738;2023-05-10T08:59:28;14.90;99.90
54516;DHT22;40422;45.892;4.738;2023-05-10T09:01:57;14.60;99.90
54516;DHT22;40422;45.892;4.738;2023-05-10T09:04:23;14.60;99.90
54516;DHT22;40422;45.892;4.738;2023-05-10T09:06:48;14.50;99.90
54516;DHT22;40422;45.892;4.738;2023-05-10T09:09:15;14.60;99.90
54516;DHT22;40422;45.892;4.738;2023-05-10T09:11:41;14.60;99.90
54516;DHT22;40422;45.892;4.738;2023-05-10T09:14:07;14.70;99.90
54516;DHT22;40422;45.892;4.738;2023-05-10T09:16:34;14.80;99.90
54516;DHT22;40422;45.892;4.738;2023-05-10T09:19:00;15.10;99.90
54516;DHT22;40422;45.892;4.738;2023-05-10T09:21:26;15.20;99.90
54516;DHT22;40422;45.892;4.738;2023-05-10T09:23:51;15.20;99.90
54516;DHT22;40422;45.892;4.738;2023-05-10T09:26:22;15.20;99.90
54516;DHT22;40422;45.892;4.738;2023-05-10T09:28:58;15.20;99.90
54516;DHT22;40422;45.892;4.738;2023-05-10T09:31:45;15.20;99.90
54516;DHT22;40422;45.892;4.738;2023-05-10T09:34:18;15.00;99.90
54516;DHT22;40422;45.892;4.738;2023-05-10T09:36:54;14.90;99.90
54516;DHT22;40422;45.892;4.738;2023-05-10T09:39:20;14.80;99.90
54516;DHT22;40422;45.892;4.738;2023-05-10T09:41:49;14.70;99.90
54516;DHT22;40422;45.892;4.738;2023-05-10T09:44:17;14.70;99.90
54516;DHT22;40422;45.892;4.738;2023-05-10T09:46:49;14.80;99.90
54516;DHT22;40422;45.892;4.738;2023-05-10T09:49:15;14.90;99.90
54516;DHT22;40422;45.892;4.738;2023-05-10T09:51:40;14.90;99.90
54516;DHT22;40422;45.892;4.738;2023-05-10T09:54:10;14.90;99.90
54516;DHT22;40422;45.892;4.738;2023-05-10T09:56:36;15.00;99.90
54516;DHT22;40422;45.892;4.738;2023-05-10T09:59:05;15.20;99.90
54516;DHT22;40422;45.892;4.738;2023-05-10T10:01:31;15.00;99.90
54516;DHT22;40422;45.892;4.738;2023-05-10T10:03:57;14.90;99.90
54516;DHT22;40422;45.892;4.738;2023-05-10T10:06:24;14.70;99.90
54516;DHT22;40422;45.892;4.738;2023-05-10T10:08:51;14.60;99.90
54516;DHT22;40422;45.892;4.738;2023-05-10T10:11:17;14.50;99.90
54516;DHT22;40422;45.892;4.738;2023-05-10T10:13:42;14.50;99.90
54516;DHT22;40422;45.892;4.738;2023-05-10T10:16:09;14.50;99.90
54516;DHT22;40422;45.892;4.738;2023-05-10T10:18:36;14.40;99.90
54516;DHT22;40422;45.892;4.738;2023-05-10T10:21:07;14.50;99.90
54516;DHT22;40422;45.892;4.738;2023-05-10T10:23:35;14.60;99.90
54516;DHT22;40422;45.892;4.738;2023-05-10T10:26:02;14.60;99.90
54516;DHT22;40422;45.892;4.738;2023-05-10T10:31:27;14.70;99.90
54516;DHT22;40422;45.892;4.738;2023-05-10T10:34:05;14.70;99.90
54516;DHT22;40422;45.892;4.738;2023-05-10T10:36:32;14.50;99.90
54516;DHT22;40422;45.892;4.738;2023-05-10T10:39:00;14.80;99.90
54516;DHT22;40422;45.892;4.738;2023-05-10T10:41:37;15.20;99.90
54516;DHT22;40422;45.892;4.738;2023-05-10T10:44:26;15.40;99.90
54516;DHT22;40422;45.892;4.738;2023-05-10T10:49:43;15.80;99.90
54516;DHT22;40422;45.892;4.738;2023-05-10T10:52:26;15.70;99.80
54516;DHT22;40422;45.892;4.738;2023-05-10T10:57:27;15.60;99.90
54516;DHT22;40422;45.892;4.738;2023-05-10T11:03:06;15.50;99.90
54516;DHT22;40422;45.892;4.738;2023-05-10T11:07:59;15.40;99.90
54516;DHT22;40422;45.892;4.738;2023-05-10T11:10:26;15.30;99.90
54516;DHT22;40422;45.892;4.738;2023-05-10T11:13:03;15.40;99.90
54516;DHT22;40422;45.892;4.738;2023-05-10T11:15:33;15.30;99.90
54516;DHT22;40422;45.892;4.738;2023-05-10T11:18:00;15.40;99.90
54516;DHT22;40422;45.892;4.738;2023-05-10T11:20:41;15.40;99.90
54516;DHT22;40422;45.892;4.738;2023-05-10T11:23:14;15.50;99.90
54516;DHT22;40422;45.892;4.738;2023-05-10T11:25:44;15.60;99.90
54516;DHT22;40422;45.892;4.738;2023-05-10T11:28:10;15.70;99.80
54516;DHT22;40422;45.892;4.738;2023-05-10T11:30:38;15.80;99.10
54516;DHT22;40422;45.892;4.738;2023-05-10T11:33:05;15.80;99.80
54516;DHT22;40422;45.892;4.738;2023-05-10T11:35:40;16.10;99.30
54516;DHT22;40422;45.892;4.738;2023-05-10T11:38:08;16.20;99.90
54516;DHT22;40422;45.892;4.738;2023-05-10T11:40:35;16.20;99.10
54516;DHT22;40422;45.892;4.738;2023-05-10T11:43:01;16.10;99.00
54516;DHT22;40422;45.892;4.738;2023-05-10T11:45:27;16.10;99.00
54516;DHT22;40422;45.892;4.738;2023-05-10T11:47:55;16.00;97.80
54516;DHT22;40422;45.892;4.738;2023-05-10T11:50:21;16.00;97.90
54516;DHT22;40422;45.892;4.738;2023-05-10T11:52:51;16.00;97.50
54516;DHT22;40422;45.892;4.738;2023-05-10T11:55:17;16.10;97.60
54516;DHT22;40422;45.892;4.738;2023-05-10T11:57:43;16.10;97.60
54516;DHT22;40422;45.892;4.738;2023-05-10T12:00:12;16.10;97.90
54516;DHT22;40422;45.892;4.738;2023-05-10T12:02:37;16.10;98.40
54516;DHT22;40422;45.892;4.738;2023-05-10T12:05:04;15.90;98.20
54516;DHT22;40422;45.892;4.738;2023-05-10T12:07:30;16.10;98.20
54516;DHT22;40422;45.892;4.738;2023-05-10T12:10:10;16.10;99.10
54516;DHT22;40422;45.892;4.738;2023-05-10T12:12:42;16.00;97.90
54516;DHT22;40422;45.892;4.738;2023-05-10T12:15:16;16.10;99.00
54516;DHT22;40422;45.892;4.738;2023-05-10T12:17:44;16.30;99.20
54516;DHT22;40422;45.892;4.738;2023-05-10T12:20:14;16.50;99.30
54516;DHT22;40422;45.892;4.738;2023-05-10T12:22:41;16.60;97.90
54516;DHT22;40422;45.892;4.738;2023-05-10T12:25:09;16.70;96.90
54516;DHT22;40422;45.892;4.738;2023-05-10T12:27:35;16.80;97.40
54516;DHT22;40422;45.892;4.738;2023-05-10T12:30:02;16.80;96.10
54516;DHT22;40422;45.892;4.738;2023-05-10T12:32:43;17.20;97.10
54516;DHT22;40422;45.892;4.738;2023-05-10T12:35:09;17.70;96.00
54516;DHT22;40422;45.892;4.738;2023-05-10T12:37:35;17.70;96.20
54516;DHT22;40422;45.892;4.738;2023-05-10T12:40:06;17.60;96.60
54516;DHT22;40422;45.892;4.738;2023-05-10T12:42:33;17.70;95.70
54516;DHT22;40422;45.892;4.738;2023-05-10T12:44:59;17.40;95.10
54516;DHT22;40422;45.892;4.738;2023-05-10T12:47:24;17.20;95.00
54516;DHT22;40422;45.892;4.738;2023-05-10T12:49:50;17.20;96.30
54516;DHT22;40422;45.892;4.738;2023-05-10T12:52:16;17.10;95.50
54516;DHT22;40422;45.892;4.738;2023-05-10T12:54:42;17.20;96.20
54516;DHT22;40422;45.892;4.738;2023-05-10T12:57:07;17.30;95.80
54516;DHT22;40422;45.892;4.738;2023-05-10T12:59:33;17.30;95.90
54516;DHT22;40422;45.892;4.738;2023-05-10T13:01:59;17.40;95.20
54516;DHT22;40422;45.892;4.738;2023-05-10T13:04:24;17.30;95.90
54516;DHT22;40422;45.892;4.738;2023-05-10T13:06:50;17.30;94.70
54516;DHT22;40422;45.892;4.738;2023-05-10T13:09:16;17.30;95.60
54516;DHT22;40422;45.892;4.738;2023-05-10T13:11:42;17.20;96.40
54516;DHT22;40422;45.892;4.738;2023-05-10T13:14:07;17.40;95.70
54516;DHT22;40422;45.892;4.738;2023-05-10T13:16:33;17.20;95.70
54516;DHT22;40422;45.892;4.738;2023-05-10T13:18:58;17.30;95.80
54516;DHT22;40422;45.892;4.738;2023-05-10T13:21:24;17.40;96.10
54516;DHT22;40422;45.892;4.738;2023-05-10T13:23:50;17.50;96.90
54516;DHT22;40422;45.892;4.738;2023-05-10T13:26:16;17.50;96.30
54516;DHT22;40422;45.892;4.738;2023-05-10T13:28:43;17.50;96.60
54516;DHT22;40422;45.892;4.738;2023-05-10T13:31:08;17.50;96.30
54516;DHT22;40422;45.892;4.738;2023-05-10T13:33:34;17.60;96.40
54516;DHT22;40422;45.892;4.738;2023-05-10T13:35:59;17.70;97.30
54516;DHT22;40422;45.892;4.738;2023-05-10T13:38:25;17.70;96.10
54516;DHT22;40422;45.892;4.738;2023-05-10T13:40:51;17.70;95.10
54516;DHT22;40422;45.892;4.738;2023-05-10T13:43:18;17.70;94.50
54516;DHT22;40422;45.892;4.738;2023-05-10T13:45:44;17.40;95.90
54516;DHT22;40422;45.892;4.738;2023-05-10T13:48:10;17.30;95.90
54516;DHT22;40422;45.892;4.738;2023-05-10T13:50:35;17.30;96.20
54516;DHT22;40422;45.892;4.738;2023-05-10T13:53:01;17.30;95.50
54516;DHT22;40422;45.892;4.738;2023-05-10T13:55:26;17.20;96.80
54516;DHT22;40422;45.892;4.738;2023-05-10T13:57:52;17.30;97.00
54516;DHT22;40422;45.892;4.738;2023-05-10T14:00:18;17.50;96.10
54516;DHT22;40422;45.892;4.738;2023-05-10T14:02:43;17.70;96.80
54516;DHT22;40422;45.892;4.738;2023-05-10T14:05:09;17.80;95.60
54516;DHT22;40422;45.892;4.738;2023-05-10T14:07:35;17.90;95.40
54516;DHT22;40422;45.892;4.738;2023-05-10T14:10:00;17.90;95.10
54516;DHT22;40422;45.892;4.738;2023-05-10T14:12:26;17.90;96.10
54516;DHT22;40422;45.892;4.738;2023-05-10T14:14:52;17.90;95.60
54516;DHT22;40422;45.892;4.738;2023-05-10T14:17:18;18.00;95.40
54516;DHT22;40422;45.892;4.738;2023-05-10T14:19:43;18.20;97.10
54516;DHT22;40422;45.892;4.738;2023-05-10T14:22:09;18.10;93.90
54516;DHT22;40422;45.892;4.738;2023-05-10T14:24:34;18.10;95.50
54516;DHT22;40422;45.892;4.738;2023-05-10T14:27:00;17.90;96.20
54516;DHT22;40422;45.892;4.738;2023-05-10T14:29:26;17.90;94.80
54516;DHT22;40422;45.892;4.738;2023-05-10T14:31:51;17.70;94.60
54516;DHT22;40422;45.892;4.738;2023-05-10T14:34:17;17.70;95.20
54516;DHT22;40422;45.892;4.738;2023-05-10T14:36:42;17.70;95.10
54516;DHT22;40422;45.892;4.738;2023-05-10T14:39:08;17.90;94.70
54516;DHT22;40422;45.892;4.738;2023-05-10T14:41:35;18.20;94.20
54516;DHT22;40422;45.892;4.738;2023-05-10T14:44:01;18.30;93.50
54516;DHT22;40422;45.892;4.738;2023-05-10T14:46:28;18.70;95.20
54516;DHT22;40422;45.892;4.738;2023-05-10T14:48:55;18.80;92.10
54516;DHT22;40422;45.892;4.738;2023-05-10T14:51:20;18.90;91.70
54516;DHT22;40422;45.892;4.738;2023-05-10T14:53:48;18.80;92.80
54516;DHT22;40422;45.892;4.738;2023-05-10T14:56:14;18.80;93.10
54516;DHT22;40422;45.892;4.738;2023-05-10T14:58:40;18.70;91.30
54516;DHT22;40422;45.892;4.738;2023-05-10T15:01:06;18.60;92.30
54516;DHT22;40422;45.892;4.738;2023-05-10T15:03:31;19.00;92.30
54516;DHT22;40422;45.892;4.738;2023-05-10T15:05:57;19.50;90.60
54516;DHT22;40422;45.892;4.738;2023-05-10T15:08:23;19.60;90.10
54516;DHT22;40422;45.892;4.738;2023-05-10T15:10:51;19.70;89.60
54516;DHT22;40422;45.892;4.738;2023-05-10T15:13:17;20.00;89.20
54516;DHT22;40422;45.892;4.738;2023-05-10T15:15:43;20.20;89.80
54516;DHT22;40422;45.892;4.738;2023-05-10T15:18:09;20.20;88.40
54516;DHT22;40422;45.892;4.738;2023-05-10T15:20:35;20.50;85.30
54516;DHT22;40422;45.892;4.738;2023-05-10T15:23:00;20.50;85.80
54516;DHT22;40422;45.892;4.738;2023-05-10T15:25:26;20.40;86.20
54516;DHT22;40422;45.892;4.738;2023-05-10T15:27:53;20.50;86.40
54516;DHT22;40422;45.892;4.738;2023-05-10T15:30:18;20.50;82.60
54516;DHT22;40422;45.892;4.738;2023-05-10T15:32:44;20.20;83.90
54516;DHT22;40422;45.892;4.738;2023-05-10T15:35:10;19.90;86.60
54516;DHT22;40422;45.892;4.738;2023-05-10T15:37:37;19.70;85.60
54516;DHT22;40422;45.892;4.738;2023-05-10T15:40:03;19.50;86.70
54516;DHT22;40422;45.892;4.738;2023-05-10T15:42:32;19.40;87.00
54516;DHT22;40422;45.892;4.738;2023-05-10T15:44:58;19.30;90.00
54516;DHT22;40422;45.892;4.738;2023-05-10T15:47:25;19.20;88.30
54516;DHT22;40422;45.892;4.738;2023-05-10T15:49:51;19.20;89.40
54516;DHT22;40422;45.892;4.738;2023-05-10T15:52:17;19.00;90.80
54516;DHT22;40422;45.892;4.738;2023-05-10T15:54:43;18.80;89.40
54516;DHT22;40422;45.892;4.738;2023-05-10T15:57:09;18.80;88.80
54516;DHT22;40422;45.892;4.738;2023-05-10T15:59:34;18.80;87.80
54516;DHT22;40422;45.892;4.738;2023-05-10T16:02:00;18.70;90.20
54516;DHT22;40422;45.892;4.738;2023-05-10T16:04:28;18.80;90.00
54516;DHT22;40422;45.892;4.738;2023-05-10T16:06:54;19.00;90.30
54516;DHT22;40422;45.892;4.738;2023-05-10T16:09:19;19.00;88.70
54516;DHT22;40422;45.892;4.738;2023-05-10T16:11:45;19.00;87.30
54516;DHT22;40422;45.892;4.738;2023-05-10T16:14:11;18.80;87.80
54516;DHT22;40422;45.892;4.738;2023-05-10T16:16:37;18.70;88.70
54516;DHT22;40422;45.892;4.738;2023-05-10T16:19:02;18.70;90.30
54516;DHT22;40422;45.892;4.738;2023-05-10T16:21:31;18.70;90.40
54516;DHT22;40422;45.892;4.738;2023-05-10T16:23:59;18.50;91.00
54516;DHT22;40422;45.892;4.738;2023-05-10T16:26:25;18.40;91.30
54516;DHT22;40422;45.892;4.738;2023-05-10T16:28:50;18.40;91.20
54516;DHT22;40422;45.892;4.738;2023-05-10T16:31:16;18.50;91.30
54516;DHT22;40422;45.892;4.738;2023-05-10T16:33:48;18.80;90.90
54516;DHT22;40422;45.892;4.738;2023-05-10T16:36:13;19.20;91.30
54516;DHT22;40422;45.892;4.738;2023-05-10T16:38:39;19.30;88.40
54516;DHT22;40422;45.892;4.738;2023-05-10T16:41:05;19.40;89.30
54516;DHT22;40422;45.892;4.738;2023-05-10T16:43:31;19.20;90.70
54516;DHT22;40422;45.892;4.738;2023-05-10T16:45:57;19.20;91.30
54516;DHT22;40422;45.892;4.738;2023-05-10T16:48:23;19.30;92.30
54516;DHT22;40422;45.892;4.738;2023-05-10T16:50:48;19.40;92.20
54516;DHT22;40422;45.892;4.738;2023-05-10T16:53:14;19.50;91.60
54516;DHT22;40422;45.892;4.738;2023-05-10T16:55:40;19.50;92.50
54516;DHT22;40422;45.892;4.738;2023-05-10T16:58:06;19.70;91.90
54516;DHT22;40422;45.892;4.738;2023-05-10T17:00:31;19.90;92.00
54516;DHT22;40422;45.892;4.738;2023-05-10T17:02:57;19.90;92.40
54516;DHT22;40422;45.892;4.738;2023-05-10T17:05:23;19.90;91.80
54516;DHT22;40422;45.892;4.738;2023-05-10T17:07:48;20.10;91.50
54516;DHT22;40422;45.892;4.738;2023-05-10T17:10:14;20.00;91.00
54516;DHT22;40422;45.892;4.738;2023-05-10T17:12:41;19.90;91.70
54516;DHT22;40422;45.892;4.738;2023-05-10T17:15:07;19.80;91.60
54516;DHT22;40422;45.892;4.738;2023-05-10T17:17:33;19.90;91.30
54516;DHT22;40422;45.892;4.738;2023-05-10T17:19:58;19.80;92.00
54516;DHT22;40422;45.892;4.738;2023-05-10T17:22:24;19.80;92.40
54516;DHT22;40422;45.892;4.738;2023-05-10T17:24:50;19.70;92.10
54516;DHT22;40422;45.892;4.738;2023-05-10T17:27:16;19.60;91.80
54516;DHT22;40422;45.892;4.738;2023-05-10T17:29:41;19.60;91.50
54516;DHT22;40422;45.892;4.738;2023-05-10T17:32:07;19.50;91.60
54516;DHT22;40422;45.892;4.738;2023-05-10T17:34:36;19.50;92.10
54516;DHT22;40422;45.892;4.738;2023-05-10T17:37:02;19.60;91.80
54516;DHT22;40422;45.892;4.738;2023-05-10T17:39:28;19.90;91.30
54516;DHT22;40422;45.892;4.738;2023-05-10T17:41:53;20.20;91.00
54516;DHT22;40422;45.892;4.738;2023-05-10T17:44:19;20.50;90.10
54516;DHT22;40422;45.892;4.738;2023-05-10T17:46:45;20.80;88.40
54516;DHT22;40422;45.892;4.738;2023-05-10T17:49:10;20.90;89.60
54516;DHT22;40422;45.892;4.738;2023-05-10T17:51:36;21.10;88.90
54516;DHT22;40422;45.892;4.738;2023-05-10T17:54:02;21.20;88.20
54516;DHT22;40422;45.892;4.738;2023-05-10T17:56:27;21.20;88.10
54516;DHT22;40422;45.892;4.738;2023-05-10T17:58:53;21.20;87.70
54516;DHT22;40422;45.892;4.738;2023-05-10T18:01:19;21.00;88.30
54516;DHT22;40422;45.892;4.738;2023-05-10T18:03:47;21.00;88.50
54516;DHT22;40422;45.892;4.738;2023-05-10T18:06:13;21.00;88.70
54516;DHT22;40422;45.892;4.738;2023-05-10T18:08:39;20.90;89.20
54516;DHT22;40422;45.892;4.738;2023-05-10T18:11:05;20.90;90.10
54516;DHT22;40422;45.892;4.738;2023-05-10T18:13:30;20.80;90.10
54516;DHT22;40422;45.892;4.738;2023-05-10T18:15:56;20.70;91.10
54516;DHT22;40422;45.892;4.738;2023-05-10T18:18:23;20.30;91.50
54516;DHT22;40422;45.892;4.738;2023-05-10T18:20:48;20.10;92.00
54516;DHT22;40422;45.892;4.738;2023-05-10T18:23:21;19.90;92.10
54516;DHT22;40422;45.892;4.738;2023-05-10T18:25:47;19.70;92.80
54516;DHT22;40422;45.892;4.738;2023-05-10T18:28:13;19.60;93.00
54516;DHT22;40422;45.892;4.738;2023-05-10T18:30:39;19.40;94.00
54516;DHT22;40422;45.892;4.738;2023-05-10T18:33:05;19.20;94.10
54516;DHT22;40422;45.892;4.738;2023-05-10T18:35:31;19.00;94.70
54516;DHT22;40422;45.892;4.738;2023-05-10T18:37:56;18.70;95.40
54516;DHT22;40422;45.892;4.738;2023-05-10T18:40:22;18.40;96.10
54516;DHT22;40422;45.892;4.738;2023-05-10T18:42:48;18.10;96.90
54516;DHT22;40422;45.892;4.738;2023-05-10T18:45:14;17.70;98.00